首页
METAR-TAF:

METAR-TAF

机场 :

沃思堡, 得克萨斯州, 美国

纬度: 32-58-24N, 经度: 097-19-05W, 海拔: 220米

当前天气观测

该预报发布于1小时和5分钟前的01:53 UTC
风速13节,风向东南
温度 31°C
湿度 49%
气压 1009 hPa
能見度: 16.1公里
少量云层高于6000英尺
散云层高于25000英尺

METAR: KAFW 170153Z 14013KT 10SM FEW060 SCT250 31/19 A2980 RMK AO2 SLP075 T03060189

时间: 21:58 (02:58 UTC)

预报

该预报发布于3小时和19分钟前的23:39 UTC
预报有效从17日的 00点(UTC)到 17日的 24点(UTC)
风速16节,风向东南
能見度: 10公里
少量云层高于6000英尺
从 17日的 1200点(UTC)
风速10节,风向
能見度: 10公里
多云层高于1800英尺
从 17日的 1700点(UTC)
风速17节,风向
能見度: 10公里
散云层高于3500英尺

TAF: KAFW 162339Z 1700/1724 14016KT P6SM FEW060 FM171200 17010KT P6SM BKN018 FM171700 17017KT P6SM SCT035

超过4000个机场的气象观测和天气预报(METAR&TAF报告)。

可查询的气象台以黄色和红色小点在地图上表示。

将鼠标移到小点上方,可查看气象台名称。

然后点击查看天气观测和预报。

如需切换地图:点击带黑十字的绿色按钮放大地图;点击带横线的绿色按钮缩小地图;或者点击绿色箭头查看邻近地区的地图。


METAR-TAF: